KHIE/HIE METAR and TAF weather

Enter ICAO airport designator
Station Type Date Time Source
KHIE METAR 2019/02/16 16:52 UTC NOAA

KHIE 161652Z AUTO 28009KT 10SM SCT038 OVC046 M01/M08 A2972 RMK AO2 SNE28 SLP079 P0000 T10111083


Station Type Date Time Source
KHIE Decoded METAR 2019/02/16 16:52 UTC NOAA

MT WASHINGTON REGIONAL AIRPORT , NH, United States (KHIE) 44-22N 71-33W 318M
Feb 16, 2019 - 11:52 AM EST / 2019.02.16 1652 UTC
Wind: from the W (280 degrees) at 10 MPH (9 KT):0
Visibility: 10 mile(s):0
Sky conditions: overcast
Precipitation last hour: A trace
Temperature: 30.0 F (-1.1 C)
Windchill: 21 F (-6 C):1
Dew Point: 17.1 F (-8.3 C)
Relative Humidity: 58%
Pressure (altimeter): 29.72 in. Hg (1006 hPa)
ob: KHIE 161652Z AUTO 28009KT 10SM SCT038 OVC046 M01/M08 A2972 RMK AO2 SNE28 SLP079 P0000 T10111083
cycle: 17

Station Type Date Time Source
KHIE TAF 2019/02/16 18:28 UTC NOAA

TAF KHIE 161725Z 1618/1718 30011KT P6SM BKN025
FM171000 33004KT P6SM SCT250


Example: see airport list